New Franklin, Missouri
Current Conditions -  °F | °C
As of 5:55 AM on Sunday 25 Jan 2015 (Local Time) from KVER Reporting Station
Overcast Overcast  
Wind Chill: 41°   Ceiling: 4200
Heat Index: 46°   Visibility: 10mi
Dew Point: 42°   Wind: 10mph
Humidity: 86%   Direction: 270°W
Pressure: 29.6"   Gusts: NA
Location:  39.02°N, 92.74°W
Report Text: KVER 251155Z AUTO 27009KT 10SM SCT020 OVC042 08/06 A2960 RMK AO2 T00770055 10156 21144
Loading
Personal Weather Stations






























Interactive Weather Map New forecast layout! Learn more

10-Day Weather Forecast

Advertisements
Track Severe Weather on mobile